createdAt,value
2019-03-27T00:00:43.520Z,99.20
2019-03-27T00:03:12.866Z,99.40
2019-03-27T00:05:42.164Z,99.70
2019-03-27T00:08:12.670Z,99.80
2019-03-27T00:10:42.016Z,99.40
2019-03-27T00:13:11.328Z,99.20
2019-03-27T00:15:40.605Z,99.20
2019-03-27T00:18:09.955Z,99.00
2019-03-27T00:20:39.221Z,98.70
2019-03-27T00:23:08.483Z,98.70
2019-03-27T00:25:37.756Z,98.90
2019-03-27T00:28:07.039Z,99.10
2019-03-27T00:30:36.297Z,99.40
2019-03-27T00:33:05.653Z,99.60
2019-03-27T00:35:34.920Z,99.80
2019-03-27T00:38:04.264Z,99.90
2019-03-27T00:40:33.800Z,99.90
2019-03-27T00:43:03.164Z,99.90
2019-03-27T00:45:32.445Z,99.90
2019-03-27T00:48:01.825Z,99.90
2019-03-27T00:50:31.084Z,99.90
2019-03-27T00:53:00.356Z,99.90
2019-03-27T00:55:29.635Z,99.90
2019-03-27T00:57:58.909Z,99.90
2019-03-27T01:00:34.389Z,99.90
2019-03-27T01:03:03.758Z,99.90
2019-03-27T01:05:33.120Z,99.90
2019-03-27T01:08:02.660Z,99.90
2019-03-27T01:10:31.928Z,99.90
2019-03-27T01:13:01.208Z,99.90
2019-03-27T01:15:39.774Z,99.90
2019-03-27T01:18:01.748Z,99.90
2019-03-27T01:20:31.016Z,99.90
2019-03-27T01:23:00.364Z,99.90
2019-03-27T01:25:29.619Z,99.90
2019-03-27T01:27:58.924Z,99.90
2019-03-27T01:30:28.184Z,99.90
2019-03-27T01:32:57.462Z,99.90
2019-03-27T01:35:26.740Z,99.90
2019-03-27T01:37:56.044Z,99.90
2019-03-27T01:40:25.306Z,99.90
2019-03-27T01:42:54.580Z,99.90
2019-03-27T01:45:23.943Z,99.90
2019-03-27T01:47:53.210Z,99.90
2019-03-27T01:50:22.488Z,99.90
2019-03-27T01:52:51.757Z,99.90
2019-03-27T01:55:21.106Z,99.90
2019-03-27T01:57:50.376Z,99.90
2019-03-27T02:00:19.792Z,99.90
2019-03-27T02:02:49.200Z,99.90
2019-03-27T02:05:18.470Z,99.90
2019-03-27T02:07:47.754Z,99.90
2019-03-27T02:10:17.308Z,99.90
2019-03-27T02:12:46.748Z,99.90
2019-03-27T02:15:16.415Z,99.90
2019-03-27T02:17:45.692Z,99.90
2019-03-27T02:20:17.436Z,99.90
2019-03-27T02:22:46.711Z,99.90
2019-03-27T02:25:16.059Z,99.90
2019-03-27T02:27:45.422Z,99.90
2019-03-27T02:30:14.882Z,99.90
2019-03-27T02:32:44.250Z,99.90
2019-03-27T02:35:13.522Z,99.90
2019-03-27T02:37:42.785Z,99.90
2019-03-27T02:40:12.153Z,99.90
2019-03-27T02:42:41.410Z,99.90
2019-03-27T02:45:11.225Z,99.90
2019-03-27T02:47:40.559Z,99.90
2019-03-27T02:50:09.876Z,99.90
2019-03-27T02:52:39.236Z,99.90
2019-03-27T02:55:09.205Z,99.90
2019-03-27T02:57:38.500Z,99.90
2019-03-27T03:00:09.114Z,99.90
2019-03-27T03:02:38.464Z,99.90
2019-03-27T03:05:09.309Z,99.90
2019-03-27T03:07:38.717Z,99.90
2019-03-27T03:10:11.682Z,99.90
2019-03-27T03:12:40.959Z,99.90
2019-03-27T03:15:11.916Z,99.90
2019-03-27T03:17:41.190Z,99.90
2019-03-27T03:20:11.353Z,99.90
2019-03-27T03:22:40.625Z,99.90
2019-03-27T03:25:10.356Z,99.90
2019-03-27T03:27:39.654Z,99.90
2019-03-27T03:30:10.103Z,99.90
2019-03-27T03:32:39.804Z,99.90
2019-03-27T03:35:09.886Z,99.90
2019-03-27T03:37:39.293Z,99.90
2019-03-27T03:40:09.368Z,99.90
2019-03-27T03:42:38.793Z,99.90
2019-03-27T03:45:08.754Z,99.90
2019-03-27T03:47:38.061Z,99.90
2019-03-27T03:50:09.678Z,99.90
2019-03-27T03:52:39.314Z,99.90
2019-03-27T03:55:08.661Z,99.90
2019-03-27T03:57:38.693Z,99.90
2019-03-27T04:00:09.993Z,99.90
2019-03-27T04:02:40.328Z,99.90
2019-03-27T04:05:13.109Z,99.90
2019-03-27T04:07:42.396Z,99.90
2019-03-27T07:44:15.468Z,75.60
2019-03-27T07:46:44.748Z,75.60
2019-03-27T07:49:14.019Z,81.40
2019-03-27T07:51:43.293Z,81.30
2019-03-27T07:54:12.607Z,82.30
2019-03-27T07:56:41.936Z,83.20
2019-03-27T07:59:12.740Z,80.70
2019-03-27T08:01:42.183Z,79.60
2019-03-27T08:04:14.398Z,78.90
2019-03-27T08:06:42.957Z,80.50
2019-03-27T08:09:12.234Z,77.30
2019-03-27T08:11:41.663Z,79.60
2019-03-27T08:14:11.076Z,82.90
2019-03-27T08:16:40.358Z,84.00
2019-03-27T08:19:09.664Z,86.80
2019-03-27T08:21:38.964Z,87.10
2019-03-27T08:24:08.239Z,84.00
2019-03-27T08:26:37.514Z,84.30
2019-03-27T08:29:06.788Z,78.50
2019-03-27T08:31:36.069Z,74.20
2019-03-27T08:34:05.498Z,69.00
2019-03-27T08:36:34.769Z,69.00
2019-03-27T08:39:05.140Z,73.90
2019-03-27T08:41:34.412Z,72.20
2019-03-27T08:44:03.764Z,68.00
2019-03-27T08:46:33.058Z,68.10
2019-03-27T08:49:02.349Z,58.20
2019-03-27T08:51:31.908Z,54.40
2019-03-27T08:54:01.197Z,53.40
2019-03-27T08:56:30.465Z,54.10
2019-03-27T08:58:59.770Z,52.00
2019-03-27T09:01:29.122Z,52.50
2019-03-27T09:03:58.867Z,48.00
2019-03-27T09:06:33.610Z,48.50
2019-03-27T09:08:59.207Z,46.40
2019-03-27T09:11:28.491Z,46.90
2019-03-27T09:13:57.866Z,48.30
2019-03-27T09:16:27.179Z,53.80
2019-03-27T09:18:56.588Z,56.60
2019-03-27T09:21:25.871Z,57.60
2019-03-27T09:23:55.225Z,59.80
2019-03-27T09:26:24.492Z,63.20
2019-03-27T09:28:53.777Z,64.90
2019-03-27T09:31:23.735Z,68.20
2019-03-27T09:33:53.080Z,71.40
2019-03-27T09:36:22.867Z,72.90
2019-03-27T09:38:52.140Z,74.60
2019-03-27T09:41:21.733Z,72.00
2019-03-27T09:43:51.057Z,72.20
2019-03-27T09:46:20.612Z,69.50
2019-03-27T09:48:49.929Z,63.50
2019-03-27T09:51:19.201Z,56.40
2019-03-27T09:53:48.515Z,55.30
2019-03-27T09:56:19.306Z,53.80
2019-03-27T09:58:49.058Z,47.30
2019-03-27T10:01:18.320Z,44.50
2019-03-27T10:03:47.596Z,41.70
2019-03-27T10:06:16.872Z,46.00
2019-03-27T10:08:46.161Z,45.70
2019-03-27T10:11:15.576Z,47.70
2019-03-27T10:13:44.855Z,49.80
2019-03-27T10:16:14.135Z,52.20
2019-03-27T10:18:43.403Z,56.80
2019-03-27T10:21:12.752Z,58.60
2019-03-27T10:23:42.035Z,58.70
2019-03-27T10:26:11.393Z,61.70
2019-03-27T10:28:40.668Z,61.30
2019-03-27T10:31:10.820Z,62.60
2019-03-27T10:33:40.090Z,64.00
2019-03-27T10:36:09.370Z,65.50
2019-03-27T10:38:41.537Z,66.60
2019-03-27T10:41:09.636Z,68.50
2019-03-27T10:43:38.913Z,66.30
2019-03-27T10:46:08.274Z,67.10
2019-03-27T10:48:51.547Z,68.90
2019-03-27T10:51:08.608Z,68.10
2019-03-27T10:53:37.958Z,67.00
2019-03-27T10:56:07.296Z,67.60
2019-03-27T10:58:36.581Z,67.90
2019-03-27T11:01:07.331Z,68.40
2019-03-27T11:03:36.924Z,65.20
2019-03-27T11:06:06.284Z,64.50
2019-03-27T11:08:35.548Z,64.20
2019-03-27T11:11:05.144Z,64.60
2019-03-27T11:13:34.633Z,68.00
2019-03-27T11:16:04.156Z,66.60
2019-03-27T11:18:33.429Z,65.80
2019-03-27T11:21:02.696Z,67.30
2019-03-27T11:23:31.952Z,68.90
2019-03-27T11:26:01.245Z,69.70
2019-03-27T11:28:30.517Z,68.70
2019-03-27T11:30:59.794Z,67.40
2019-03-27T11:33:29.176Z,67.20
2019-03-27T11:35:59.944Z,65.80
2019-03-27T11:38:29.216Z,66.90
2019-03-27T11:40:58.512Z,66.30
2019-03-27T11:43:27.947Z,66.80
2019-03-27T11:45:57.212Z,67.50
2019-03-27T11:48:26.496Z,69.80
2019-03-27T11:50:55.784Z,69.00
2019-03-27T11:53:25.072Z,66.80
2019-03-27T11:55:54.396Z,66.00
2019-03-27T11:58:23.752Z,64.80
2019-03-27T12:00:54.913Z,66.50
2019-03-27T12:03:24.718Z,68.30
2019-03-27T12:05:53.996Z,66.80
2019-03-27T12:08:23.263Z,66.80
2019-03-27T12:10:52.548Z,68.90
2019-03-27T12:13:21.824Z,68.50
2019-03-27T12:15:51.088Z,67.40
2019-03-27T12:18:20.653Z,66.70
2019-03-27T12:20:58.958Z,68.70
2019-03-27T12:23:21.108Z,69.60
2019-03-27T12:25:50.424Z,70.10
2019-03-27T12:28:19.808Z,69.00
2019-03-27T12:30:49.092Z,68.50
2019-03-27T12:33:18.456Z,67.30
2019-03-27T12:35:47.887Z,68.90
2019-03-27T12:38:17.346Z,66.40
2019-03-27T12:40:46.616Z,66.40
2019-03-27T12:43:15.904Z,68.30
2019-03-27T12:45:45.325Z,67.40
2019-03-27T12:48:14.713Z,66.10
2019-03-27T12:50:44.463Z,65.90
2019-03-27T12:53:14.176Z,66.80
2019-03-27T12:55:43.647Z,66.40
2019-03-27T12:58:12.929Z,65.00
2019-03-27T13:00:42.281Z,65.90
2019-03-27T13:03:11.962Z,65.50
2019-03-27T13:05:41.248Z,62.30
2019-03-27T13:08:10.657Z,66.70
2019-03-27T13:10:40.115Z,64.90
2019-03-27T13:13:09.480Z,64.00
2019-03-27T13:15:38.932Z,63.00
2019-03-27T13:18:08.229Z,61.30
2019-03-27T13:20:37.509Z,61.90
2019-03-27T13:23:06.785Z,62.20
2019-03-27T13:25:36.217Z,63.80
2019-03-27T13:28:05.772Z,65.60
2019-03-27T13:30:35.937Z,66.70
2019-03-27T13:33:05.300Z,68.90
2019-03-27T13:35:34.652Z,66.60
2019-03-27T13:38:04.016Z,67.20
2019-03-27T13:40:33.364Z,65.20
2019-03-27T13:43:02.680Z,64.50
2019-03-27T13:45:32.003Z,66.00
2019-03-27T13:48:01.328Z,66.20
2019-03-27T13:50:30.707Z,67.30
2019-03-27T13:53:07.206Z,64.40
2019-03-27T13:55:38.926Z,64.00
2019-03-27T13:58:08.421Z,62.10
2019-03-27T14:00:37.708Z,63.30
2019-03-27T14:03:08.857Z,63.50
2019-03-27T14:05:40.805Z,61.90
2019-03-27T14:08:11.915Z,61.90
2019-03-27T14:10:41.237Z,61.40
2019-03-27T14:13:14.890Z,60.60
2019-03-27T14:15:44.246Z,61.90
2019-03-27T14:18:14.012Z,61.50
2019-03-27T14:20:43.329Z,61.10
2019-03-27T14:23:12.612Z,60.90
2019-03-27T14:25:45.195Z,59.50
2019-03-27T14:28:16.396Z,61.10
2019-03-27T14:30:57.055Z,61.10
2019-03-27T14:33:27.235Z,60.30
2019-03-27T14:35:57.029Z,61.60
2019-03-27T14:38:27.895Z,61.30
2019-03-27T14:40:57.524Z,60.20
2019-03-27T14:43:27.372Z,59.80
2019-03-27T14:45:58.523Z,59.70
2019-03-27T14:48:29.300Z,59.60
2019-03-27T14:50:59.969Z,59.40
2019-03-27T14:53:29.483Z,59.50
2019-03-27T14:55:58.756Z,60.00
2019-03-27T14:58:28.253Z,61.50
2019-03-27T15:00:57.524Z,61.20
2019-03-27T15:03:26.836Z,62.10
2019-03-27T15:05:56.323Z,61.80
2019-03-27T15:08:25.568Z,61.20
2019-03-27T15:10:55.218Z,63.10
2019-03-27T15:13:24.861Z,62.40
2019-03-27T15:15:54.374Z,61.70
2019-03-27T15:18:23.664Z,61.10
2019-03-27T15:20:54.285Z,60.20
2019-03-27T15:23:23.569Z,61.50
2019-03-27T15:25:53.059Z,63.30
2019-03-27T15:28:22.323Z,64.00
2019-03-27T15:30:52.509Z,63.30
2019-03-27T15:33:25.741Z,64.70
2019-03-27T15:35:55.223Z,62.50
2019-03-27T15:38:24.508Z,63.10
2019-03-27T15:40:54.352Z,62.10
2019-03-27T15:43:24.448Z,62.10
2019-03-27T15:45:54.850Z,61.80
2019-03-27T15:48:24.275Z,61.50
2019-03-27T15:50:57.080Z,62.50
2019-03-27T15:53:24.600Z,63.40
2019-03-27T15:55:54.137Z,63.30
2019-03-27T15:58:23.596Z,63.30
2019-03-27T16:00:53.040Z,64.00
2019-03-27T16:03:22.417Z,64.00
2019-03-27T16:05:51.855Z,64.20
2019-03-27T16:08:21.641Z,65.20
2019-03-27T16:10:51.449Z,63.50
2019-03-27T16:13:21.062Z,62.80
2019-03-27T16:35:32.245Z,70.20
2019-03-27T16:38:01.559Z,70.30
2019-03-27T16:40:44.755Z,71.30
2019-03-27T16:43:14.250Z,72.40
2019-03-27T16:45:43.726Z,72.30
2019-03-27T16:48:14.387Z,74.00
2019-03-27T16:50:43.778Z,73.70
2019-03-27T16:53:13.123Z,75.90
2019-03-27T16:55:42.602Z,76.10
2019-03-27T16:58:12.340Z,77.00
2019-03-27T17:06:35.671Z,77.30
2019-03-27T17:09:07.324Z,76.20
2019-03-27T17:11:38.372Z,79.40
2019-03-27T17:14:07.858Z,78.00
2019-03-27T17:16:38.005Z,80.90
2019-03-27T17:19:07.297Z,81.20
2019-03-27T17:21:36.593Z,79.50
2019-03-27T17:24:06.013Z,81.80
2019-03-27T17:26:38.117Z,82.80
2019-03-27T17:29:07.402Z,81.40
2019-03-27T17:31:36.742Z,83.90
2019-03-27T17:34:07.548Z,85.00
2019-03-27T17:37:07.111Z,84.60
2019-03-27T17:43:05.804Z,88.20
2019-03-27T17:46:32.091Z,87.20
2019-03-27T17:49:02.259Z,87.20
2019-03-27T17:51:31.891Z,89.30
2019-03-27T17:54:01.495Z,90.90
2019-03-27T17:56:31.219Z,90.90
2019-03-27T17:59:00.820Z,90.70
2019-03-27T18:01:30.733Z,91.30
2019-03-27T18:04:00.419Z,90.90
2019-03-27T18:06:30.951Z,91.70
2019-03-27T18:09:00.539Z,91.80
2019-03-27T18:12:14.835Z,92.00
2019-03-27T18:20:55.892Z,91.50
2019-03-27T18:23:25.688Z,91.90
2019-03-27T18:25:55.275Z,91.70
2019-03-27T18:28:24.894Z,91.90
2019-03-27T18:30:54.160Z,92.30
2019-03-27T18:33:23.792Z,93.10
2019-03-27T18:35:53.137Z,93.00
2019-03-27T18:38:22.668Z,93.20
2019-03-27T18:40:52.137Z,93.40
2019-03-27T18:43:21.578Z,93.70
2019-03-27T18:45:51.140Z,93.40
2019-03-27T18:48:21.107Z,93.30
2019-03-27T18:50:51.771Z,93.20
2019-03-27T18:53:23.434Z,93.30
2019-03-27T18:55:53.263Z,93.50
2019-03-27T18:58:25.962Z,93.30
2019-03-27T19:00:56.189Z,93.20
2019-03-27T19:03:28.250Z,93.20
2019-03-27T19:05:59.928Z,93.20
2019-03-27T19:08:31.191Z,93.40
2019-03-27T19:11:01.527Z,93.40
2019-03-27T19:13:35.218Z,93.60
2019-03-27T19:16:16.575Z,93.50
2019-03-27T19:18:46.858Z,93.40
2019-03-27T19:21:16.929Z,93.40
2019-03-27T19:23:48.592Z,93.30
2019-03-27T19:26:18.775Z,93.60
2019-03-27T19:28:48.756Z,93.20
2019-03-27T19:31:18.987Z,93.50
2019-03-27T19:33:49.807Z,93.50
2019-03-27T19:36:19.563Z,93.40
2019-03-27T19:38:49.081Z,93.20
2019-03-27T19:41:19.522Z,93.30
2019-03-27T19:43:49.924Z,93.20
2019-03-27T19:46:20.672Z,93.30
2019-03-27T19:48:53.964Z,93.30
2019-03-27T19:51:24.272Z,93.20
2019-03-27T19:53:54.756Z,93.20
2019-03-27T19:56:26.555Z,93.30
2019-03-27T19:58:56.610Z,94.00
2019-03-27T20:01:26.622Z,93.80
2019-03-27T20:03:55.896Z,93.80
2019-03-27T20:06:25.203Z,93.70
2019-03-27T20:08:56.874Z,94.30
2019-03-27T20:11:26.396Z,93.90
2019-03-27T20:13:55.996Z,94.20
2019-03-27T20:16:26.291Z,94.20
2019-03-27T20:18:56.176Z,93.90
2019-03-27T20:21:25.680Z,94.30
2019-03-27T20:23:55.368Z,94.00
2019-03-27T20:26:24.646Z,94.20
2019-03-27T20:28:53.915Z,94.30
2019-03-27T20:31:23.505Z,94.50
2019-03-27T20:33:53.112Z,94.70
2019-03-27T20:36:23.091Z,95.10
2019-03-27T20:38:52.642Z,95.50
2019-03-27T20:41:22.243Z,95.90
2019-03-27T20:43:51.848Z,95.90
2019-03-27T20:46:25.603Z,95.90
2019-03-27T20:48:52.921Z,96.70
2019-03-27T20:51:22.192Z,96.80
2019-03-27T20:53:51.522Z,96.80
2019-03-27T20:56:20.819Z,96.80
2019-03-27T20:58:50.124Z,96.50
2019-03-27T21:01:19.758Z,96.70
2019-03-27T21:03:49.090Z,97.10
2019-03-27T21:06:18.751Z,97.30
2019-03-27T21:08:48.280Z,97.50
2019-03-27T21:11:17.630Z,97.70
2019-03-27T21:13:46.916Z,97.80
2019-03-27T21:16:16.666Z,98.10
2019-03-27T21:18:46.285Z,98.20
2019-03-27T21:21:16.178Z,98.10
2019-03-27T21:23:45.765Z,98.60
2019-03-27T21:26:15.426Z,98.70
2019-03-27T21:28:45.276Z,98.30
2019-03-27T21:31:14.542Z,98.50
2019-03-27T21:33:43.819Z,98.60
2019-03-27T21:36:13.104Z,99.00
2019-03-27T21:38:42.732Z,98.50
2019-03-27T21:41:12.326Z,98.90
2019-03-27T21:43:42.375Z,99.00
2019-03-27T21:46:12.155Z,98.70
2019-03-27T21:48:41.757Z,98.80
2019-03-27T21:51:11.395Z,98.80
2019-03-27T21:53:40.654Z,99.10
2019-03-27T21:56:09.911Z,99.50
2019-03-27T21:58:39.481Z,99.10
2019-03-27T22:01:09.081Z,98.90
2019-03-27T22:03:38.344Z,99.50
2019-03-27T22:06:07.615Z,99.70
2019-03-27T22:08:36.877Z,99.80
2019-03-27T22:11:06.514Z,99.90
2019-03-27T22:13:37.515Z,99.90
2019-03-27T22:16:07.619Z,99.90
2019-03-27T22:18:37.101Z,99.90
2019-03-27T22:21:07.439Z,99.90
2019-03-27T22:23:37.031Z,99.90
2019-03-27T22:26:06.536Z,99.90
2019-03-27T22:28:38.319Z,99.90
2019-03-27T22:31:07.823Z,99.90
2019-03-27T22:33:38.372Z,99.90
2019-03-27T22:36:07.890Z,99.90
2019-03-27T22:38:37.277Z,99.90
2019-03-27T22:41:06.731Z,99.90
2019-03-27T22:43:39.383Z,99.90
2019-03-27T22:46:08.806Z,99.90
2019-03-27T22:48:39.306Z,99.90
2019-03-27T22:51:09.026Z,99.90
2019-03-27T22:53:38.453Z,99.90
2019-03-27T22:56:08.080Z,99.90
2019-03-27T22:58:38.387Z,99.90
2019-03-27T23:01:07.974Z,99.90
2019-03-27T23:03:37.439Z,99.90
2019-03-27T23:06:07.194Z,99.90
2019-03-27T23:08:36.557Z,99.90
2019-03-27T23:11:05.964Z,99.90
2019-03-27T23:13:35.636Z,99.90
2019-03-27T23:16:04.992Z,99.90
2019-03-27T23:18:34.612Z,99.90
2019-03-27T23:21:04.108Z,99.90
2019-03-27T23:23:33.370Z,99.90
2019-03-27T23:26:03.759Z,99.90
2019-03-27T23:28:33.172Z,99.90
2019-03-27T23:31:02.756Z,99.90
2019-03-27T23:33:32.269Z,99.90
2019-03-27T23:36:01.551Z,99.90
2019-03-27T23:38:31.070Z,99.90
2019-03-27T23:41:00.675Z,99.90
2019-03-27T23:43:29.939Z,99.90
2019-03-27T23:45:59.480Z,99.90
2019-03-27T23:48:29.039Z,99.90
2019-03-27T23:50:58.599Z,99.90
2019-03-27T23:53:28.409Z,99.90
2019-03-27T23:55:58.111Z,99.90
2019-03-27T23:58:28.159Z,99.90
